Time;durP1;ratioP1;P1;durP2;ratioP2;P2;SDS_P1;SDS_P2;PMS_P1;PMS_P2;Temp;Humidity;BMP_temperature;BMP_pressure;BME280_temperature;BME280_humidity;BME280_pressure;Samples;Min_cycle;Max_cycle;Signal;HPM_P1;HPM_P2
2023/04/09 00:00:04;;;;;;;31.95;22.35;;;;;;;7.56;62.83;102029.47;683126;29;1241;-87
2023/04/09 00:00:32;;;;;;;34.88;24.00;;;;;;;7.50;62.61;102013.50;680487;29;1395;-87
2023/04/09 00:01:09;;;;;;;35.35;24.27;;;;;;;7.57;62.60;102031.25;683042;29;1026;-87
2023/04/09 00:01:30;;;;;;;34.75;23.35;;;;;;;7.45;62.80;102012.31;683176;29;939;-87
2023/04/09 00:01:52;;;;;;;34.08;22.45;;;;;;;7.46;62.96;102012.41;685780;28;1139;-87
2023/04/09 00:02:13;;;;;;;33.33;21.95;;;;;;;7.42;62.87;102005.22;683077;28;1128;-87
2023/04/09 00:02:34;;;;;;;32.60;21.65;;;;;;;7.48;62.59;102017.66;685767;28;1452;-87
2023/04/09 00:02:54;;;;;;;33.92;22.45;;;;;;;7.49;62.97;102027.28;685582;28;1221;-87
2023/04/09 00:03:15;;;;;;;35.23;23.00;;;;;;;7.49;62.66;102022.09;683086;29;1270;-87
2023/04/09 00:03:37;;;;;;;36.60;23.63;;;;;;;7.38;62.89;102004.13;680514;29;1289;-87
2023/04/09 00:03:59;;;;;;;36.50;23.20;;;;;;;7.43;63.05;102017.41;682898;29;1052;-87
2023/04/09 00:04:21;;;;;;;33.72;21.80;;;;;;;7.39;62.84;102011.13;682644;29;1368;-87
2023/04/09 00:04:41;;;;;;;33.05;21.98;;;;;;;7.39;63.10;102011.13;685822;28;894;-87
2023/04/09 00:05:02;;;;;;;32.25;21.75;;;;;;;7.36;63.16;102008.34;682994;29;1204;-87
2023/04/09 00:05:23;;;;;;;33.17;22.50;;;;;;;7.34;62.86;102001.25;683043;29;1197;-87
2023/04/09 00:05:44;;;;;;;32.00;21.98;;;;;;;7.42;63.11;102025.13;685860;28;1162;-87
2023/04/09 00:06:05;;;;;;;32.30;22.50;;;;;;;7.34;62.93;102012.56;680295;29;1212;-87
2023/04/09 00:06:26;;;;;;;32.15;22.40;;;;;;;7.35;62.94;102018.63;680565;29;832;-87
2023/04/09 00:06:46;;;;;;;32.70;22.60;;;;;;;7.35;63.34;102013.44;682882;29;1236;-86
2023/04/09 00:07:07;;;;;;;33.88;22.17;;;;;;;7.36;62.88;102026.53;683083;29;969;-87
2023/04/09 00:07:28;;;;;;;34.03;21.75;;;;;;;7.30;62.94;102010.56;682945;29;1189;-87
2023/04/09 00:07:48;;;;;;;34.65;22.23;;;;;;;7.36;63.08;102030.81;680449;29;1236;-87
2023/04/09 00:08:09;;;;;;;33.73;22.53;;;;;;;7.29;63.19;102013.09;677824;29;1018;-87
2023/04/09 00:08:30;;;;;;;34.25;23.20;;;;;;;7.31;63.10;102012.34;680526;29;1284;-87
2023/04/09 00:08:50;;;;;;;34.47;22.83;;;;;;;7.33;63.21;102020.25;682919;28;1402;-87
2023/04/09 00:09:11;;;;;;;34.57;22.70;;;;;;;7.36;62.90;102026.53;680446;29;1258;-87
2023/04/09 00:09:31;;;;;;;32.22;22.17;;;;;;;7.27;63.25;102015.56;680554;29;850;-87
2023/04/09 00:09:52;;;;;;;31.63;22.00;;;;;;;7.34;62.99;102028.13;685657;28;1210;-87
2023/04/09 00:10:12;;;;;;;33.03;22.67;;;;;;;7.31;63.04;102019.25;683279;28;1404;-87
2023/04/09 00:10:33;;;;;;;35.85;23.23;;;;;;;7.35;63.37;102029.00;677935;29;1158;-86
2023/04/09 00:10:54;;;;;;;36.70;23.50;;;;;;;7.23;63.18;102009.28;683055;28;1284;-86
2023/04/09 00:11:15;;;;;;;36.42;23.70;;;;;;;7.19;63.04;102009.00;680585;29;1212;-87
2023/04/09 00:11:35;;;;;;;35.35;23.83;;;;;;;7.29;63.23;102024.34;683160;28;1146;-87
2023/04/09 00:11:57;;;;;;;34.90;23.40;;;;;;;7.24;63.07;102020.56;677738;29;1219;-87
2023/04/09 00:12:17;;;;;;;33.15;22.33;;;;;;;7.20;63.23;102010.81;680574;29;1269;-87
2023/04/09 00:12:38;;;;;;;31.30;21.70;;;;;;;7.23;63.43;102018.75;680731;29;1258;-87
2023/04/09 00:12:59;;;;;;;32.63;22.10;;;;;;;7.16;63.55;102001.00;683210;29;1098;-86
2023/04/09 00:13:20;;;;;;;34.38;22.58;;;;;;;7.30;63.62;102031.34;680564;29;1201;-87
2023/04/09 00:13:40;;;;;;;36.42;23.35;;;;;;;7.31;63.63;102027.94;683136;29;1446;-87
2023/04/09 00:14:01;;;;;;;37.97;23.83;;;;;;;7.25;63.35;102012.00;683185;29;1260;-86
2023/04/09 00:14:21;;;;;;;38.83;24.40;;;;;;;7.23;63.40;102013.56;680776;29;1100;-87
2023/04/09 00:14:42;;;;;;;39.70;24.48;;;;;;;7.30;63.26;102026.13;677863;29;1270;-87
2023/04/09 00:15:03;;;;;;;37.25;24.17;;;;;;;7.22;63.52;102009.19;682918;29;1249;-87
2023/04/09 00:15:24;;;;;;;38.77;24.20;;;;;;;7.22;62.93;102006.59;680638;29;785;-87
2023/04/09 00:15:45;;;;;;;37.23;23.40;;;;;;;7.30;63.44;102020.94;680268;29;1911;-87
2023/04/09 00:16:06;;;;;;;38.72;23.77;;;;;;;7.23;63.14;102017.06;683177;29;1028;-87
2023/04/09 00:16:27;;;;;;;36.38;23.25;;;;;;;7.20;63.31;102013.41;683040;28;1399;-87
2023/04/09 00:16:47;;;;;;;36.35;23.50;;;;;;;7.27;62.86;102023.38;680151;29;1189;-86
2023/04/09 00:17:08;;;;;;;35.50;23.30;;;;;;;7.22;63.64;102022.16;685289;28;1211;-87
2023/04/09 00:17:29;;;;;;;35.53;23.20;;;;;;;7.26;63.22;102030.25;683101;29;1200;-87
2023/04/09 00:17:50;;;;;;;35.00;23.38;;;;;;;7.19;63.33;102020.28;682989;29;1092;-86
2023/04/09 00:18:10;;;;;;;35.40;23.70;;;;;;;7.12;63.47;102005.13;685677;28;1198;-87
2023/04/09 00:18:31;;;;;;;35.70;24.40;;;;;;;7.24;63.30;102028.34;688545;28;909;-87
2023/04/09 00:18:51;;;;;;;37.50;24.93;;;;;;;7.17;63.26;102008.03;682924;29;1161;-87
2023/04/09 00:19:32;;;;;;;38.85;25.20;;;;;;;7.22;63.04;102029.97;683130;28;867;-87
2023/04/09 00:19:52;;;;;;;38.38;24.05;;;;;;;7.18;63.70;102025.41;680307;29;1115;-86
2023/04/09 00:20:13;;;;;;;37.13;23.48;;;;;;;7.08;63.25;102011.84;683083;29;1190;-87
2023/04/09 00:20:34;;;;;;;37.50;23.67;;;;;;;7.11;63.44;102021.50;688457;28;1296;-87
2023/04/09 00:20:54;;;;;;;36.23;23.87;;;;;;;7.14;63.30;102024.31;688290;28;1166;-87
2023/04/09 00:21:15;;;;;;;36.90;24.20;;;;;;;7.06;63.43;102007.34;683061;29;1180;-87
2023/04/09 00:21:36;;;;;;;35.25;24.27;;;;;;;7.07;63.42;102010.03;680402;29;1142;-87
2023/04/09 00:21:56;;;;;;;35.55;23.63;;;;;;;7.01;63.55;102004.47;680220;29;1462;-87
2023/04/09 00:22:17;;;;;;;35.35;23.73;;;;;;;7.05;63.35;102013.34;680541;29;1091;-87
2023/04/09 00:22:38;;;;;;;35.97;24.20;;;;;;;7.06;63.76;102013.44;677901;29;1405;-87
2023/04/09 00:22:58;;;;;;;35.63;23.88;;;;;;;7.09;63.64;102020.50;685512;28;1272;-87
2023/04/09 00:23:19;;;;;;;35.60;23.17;;;;;;;7.01;63.65;102011.34;683089;29;1222;-87
2023/04/09 00:23:40;;;;;;;34.75;22.70;;;;;;;7.07;63.58;102023.00;682982;28;1328;-87
2023/04/09 00:24:01;;;;;;;36.10;23.48;;;;;;;7.03;63.44;102021.03;685644;28;1360;-87
2023/04/09 00:24:22;;;;;;;36.38;24.08;;;;;;;7.04;63.86;102025.41;685780;28;1118;-87
2023/04/09 00:24:42;;;;;;;37.03;24.50;;;;;;;7.04;63.60;102027.09;688484;28;1297;-86
2023/04/09 00:25:03;;;;;;;34.33;23.60;;;;;;;6.99;63.52;102013.84;682895;29;1215;-87
2023/04/09 00:25:24;;;;;;;33.10;23.42;;;;;;;6.99;63.84;102019.94;683116;29;1211;-87
2023/04/09 00:25:44;;;;;;;32.83;22.90;;;;;;;6.96;63.95;102008.47;683125;28;1208;-87
2023/04/09 00:26:05;;;;;;;35.97;23.43;;;;;;;6.95;63.36;102009.28;685692;28;1211;-87
2023/04/09 00:26:26;;;;;;;35.50;23.27;;;;;;;6.95;63.68;102014.47;688452;28;1260;-87
2023/04/09 00:26:48;;;;;;;36.13;23.50;;;;;;;6.90;63.55;101997.69;685557;28;1089;-87
2023/04/09 00:27:08;;;;;;;35.53;23.75;;;;;;;6.95;63.33;102014.47;683008;28;1145;-87
2023/04/09 00:27:29;;;;;;;35.73;23.73;;;;;;;7.03;63.70;102031.41;678148;29;1163;-87
2023/04/09 00:27:50;;;;;;;35.50;23.95;;;;;;;6.88;63.45;102004.50;682995;29;1092;-87
2023/04/09 00:28:10;;;;;;;36.05;24.40;;;;;;;6.96;63.48;102019.75;683119;29;1009;-86
2023/04/09 00:28:31;;;;;;;35.75;24.33;;;;;;;6.96;63.82;102018.84;688444;28;1218;-87
2023/04/09 00:28:52;;;;;;;36.05;24.90;;;;;;;6.96;63.46;102019.75;688326;28;1137;-87
2023/04/09 00:29:12;;;;;;;35.80;25.03;;;;;;;6.85;63.60;101998.31;685710;28;1007;-87
2023/04/09 00:29:33;;;;;;;36.17;25.00;;;;;;;6.87;63.52;102015.69;680456;29;1288;-87
2023/04/09 00:29:55;;;;;;;35.53;24.63;;;;;;;6.85;63.98;102006.09;682847;29;1171;-87
2023/04/09 00:30:15;;;;;;;34.92;24.13;;;;;;;6.89;63.54;102011.47;683044;29;1225;-87
2023/04/09 00:30:36;;;;;;;38.63;25.47;;;;;;;6.89;63.65;102011.47;680582;29;729;-87
2023/04/09 00:30:56;;;;;;;40.53;26.15;;;;;;;6.93;63.83;102027.34;680268;29;955;-87
2023/04/09 00:31:17;;;;;;;40.33;26.10;;;;;;;6.83;63.37;102001.63;680331;29;1287;-87
2023/04/09 00:31:38;;;;;;;37.83;24.90;;;;;;;6.89;63.88;102017.56;685749;28;1219;-87
2023/04/09 00:31:58;;;;;;;37.25;24.45;;;;;;;6.87;63.50;102010.50;688247;28;1243;-87
2023/04/09 00:32:19;;;;;;;38.92;24.73;;;;;;;6.91;63.73;102020.25;688392;28;1117;-87
2023/04/09 00:32:40;;;;;;;38.03;24.52;;;;;;;6.80;63.57;102002.31;685787;28;1199;-87
2023/04/09 00:33:00;;;;;;;37.20;23.87;;;;;;;6.85;63.61;102019.09;680256;29;1245;-86
2023/04/09 00:33:21;;;;;;;35.53;23.02;;;;;;;6.83;63.73;102012.00;685783;28;1051;-87
2023/04/09 00:33:44;;;;;;;36.25;23.33;;;;;;;6.85;63.52;102011.28;683081;29;1167;-87
2023/04/09 00:34:05;;;;;;;37.08;24.10;;;;;;;6.84;64.28;102017.28;685669;28;1205;-87
2023/04/09 00:34:26;;;;;;;37.42;24.90;;;;;;;6.80;64.09;102007.50;683144;28;914;-87
2023/04/09 00:34:47;;;;;;;37.45;24.70;;;;;;;6.84;63.75;102012.09;680381;29;1146;-87
2023/04/09 00:35:08;;;;;;;37.08;24.38;;;;;;;6.82;63.27;102013.69;680411;29;1179;-87
2023/04/09 00:35:29;;;;;;;38.13;24.58;;;;;;;6.77;63.89;102002.13;683151;29;1357;-87
2023/04/09 00:35:50;;;;;;;37.95;24.77;;;;;;;6.78;64.09;102011.72;682857;29;1969;-87
2023/04/09 00:36:10;;;;;;;36.72;23.98;;;;;;;6.80;63.89;102015.28;680388;29;1084;-86
2023/04/09 00:36:31;;;;;;;35.77;23.93;;;;;;;6.76;63.98;102005.50;677309;29;1218;-87
2023/04/09 00:36:51;;;;;;;36.60;23.80;;;;;;;6.81;64.20;102014.47;680142;29;1085;-87
2023/04/09 00:37:12;;;;;;;38.03;24.35;;;;;;;6.88;63.72;102023.53;683105;29;1153;-87
2023/04/09 00:37:33;;;;;;;39.90;24.93;;;;;;;6.82;63.72;102013.69;683111;29;1170;-87
2023/04/09 00:37:53;;;;;;;38.87;24.93;;;;;;;6.83;64.04;102018.06;685566;28;1150;-87
2023/04/09 00:38:14;;;;;;;38.40;25.00;;;;;;;6.87;63.92;102024.34;683077;29;1109;-87
2023/04/09 00:38:35;;;;;;;37.45;24.40;;;;;;;6.73;63.81;102005.31;685809;28;763;-87
2023/04/09 00:38:55;;;;;;;37.40;24.57;;;;;;;6.80;63.96;102016.97;685715;28;1281;-87
2023/04/09 00:39:16;;;;;;;38.45;24.90;;;;;;;6.76;64.02;102020.19;683052;29;970;-87
2023/04/09 00:39:36;;;;;;;37.10;24.27;;;;;;;6.79;63.69;102016.09;683181;29;823;-87
2023/04/09 00:39:57;;;;;;;37.50;24.03;;;;;;;6.74;63.85;102007.09;682906;29;1038;-87
2023/04/09 00:40:17;;;;;;;36.65;23.70;;;;;;;6.73;63.85;102004.44;685812;28;1198;-87
2023/04/09 00:40:38;;;;;;;37.80;24.40;;;;;;;6.68;64.02;102001.47;685850;28;796;-87
2023/04/09 00:40:59;;;;;;;36.70;24.23;;;;;;;6.74;63.94;102014.88;683037;28;1170;-87
2023/04/09 00:41:19;;;;;;;37.65;24.48;;;;;;;6.77;64.15;102017.69;685698;28;1105;-87
2023/04/09 00:41:40;;;;;;;37.15;24.90;;;;;;;6.67;63.81;102004.88;683189;29;832;-87
2023/04/09 00:42:04;;;;;;;36.93;25.27;;;;;;;6.69;64.17;102006.78;682870;29;1208;-87
2023/04/09 00:42:25;;;;;;;36.75;24.65;;;;;;;6.69;63.40;102011.09;683065;29;1106;-87
2023/04/09 00:42:46;;;;;;;38.15;24.90;;;;;;;6.73;64.09;102015.69;677624;29;1453;-86
2023/04/09 00:43:07;;;;;;;40.08;24.55;;;;;;;6.64;64.27;101999.50;680275;29;1223;-87
2023/04/09 00:43:28;;;;;;;40.90;25.02;;;;;;;6.66;64.25;102003.09;682681;28;1234;-87
2023/04/09 00:43:48;;;;;;;41.20;24.80;;;;;;;6.60;63.93;101994.91;680263;29;1175;-87
2023/04/09 00:44:09;;;;;;;39.63;25.25;;;;;;;6.55;63.89;101992.94;677827;29;1059;-87
2023/04/09 00:44:29;;;;;;;39.22;25.70;;;;;;;6.56;63.95;101991.22;677901;29;797;-87
2023/04/09 00:44:50;;;;;;;39.63;25.67;;;;;;;6.68;63.84;102017.03;677633;29;1149;-87
2023/04/09 00:45:11;;;;;;;38.67;24.83;;;;;;;6.60;63.76;102000.09;677845;29;1022;-86
2023/04/09 00:45:32;;;;;;;38.50;24.93;;;;;;;6.62;64.04;102003.72;685716;28;1313;-88
2023/04/09 00:45:53;;;;;;;37.33;25.10;;;;;;;6.57;63.99;101995.63;685493;28;1320;-87
2023/04/09 00:46:15;;;;;;;37.90;25.10;;;;;;;6.61;64.02;101999.28;683098;29;1181;-87
2023/04/09 00:46:35;;;;;;;35.78;24.17;;;;;;;6.51;63.65;101988.34;685677;28;1371;-87
2023/04/09 00:46:58;;;;;;;35.65;23.90;;;;;;;6.55;63.69;102000.72;685308;28;974;-87
2023/04/09 00:47:19;;;;;;;36.72;24.30;;;;;;;6.63;63.85;102019.34;682906;29;1271;-87
2023/04/09 00:47:41;;;;;;;38.40;24.77;;;;;;;6.66;64.40;102016.06;680480;29;764;-87
2023/04/09 00:48:02;;;;;;;37.67;24.60;;;;;;;6.52;64.09;101997.91;680288;29;1092;-87
2023/04/09 00:48:23;;;;;;;36.80;24.27;;;;;;;6.63;63.70;102013.28;682936;28;1340;-87
2023/04/09 00:48:44;;;;;;;36.22;24.55;;;;;;;6.63;63.77;102013.28;680489;29;1121;-87
2023/04/09 00:49:05;;;;;;;35.92;24.52;;;;;;;6.55;63.73;101995.53;685560;28;1143;-86
2023/04/09 00:49:26;;;;;;;37.05;25.40;;;;;;;6.60;63.90;102007.88;682973;28;1237;-87
2023/04/09 00:49:47;;;;;;;39.08;25.75;;;;;;;6.60;64.40;102013.97;680319;29;1386;-85
2023/04/09 00:50:08;;;;;;;40.38;25.48;;;;;;;6.57;63.95;102017.25;685626;28;1091;-87
2023/04/09 00:50:28;;;;;;;40.75;24.40;;;;;;;6.51;63.59;101993.53;685602;28;1197;-87
2023/04/09 00:50:49;;;;;;;38.10;24.25;;;;;;;6.49;63.87;101994.22;682834;29;1238;-86
2023/04/09 00:51:10;;;;;;;37.60;24.40;;;;;;;6.55;63.92;102005.91;685628;28;1268;-87
2023/04/09 00:51:31;;;;;;;38.90;24.20;;;;;;;6.49;64.01;102000.31;685778;28;792;-87
2023/04/09 00:51:52;;;;;;;38.53;24.38;;;;;;;6.56;63.84;102005.09;685427;28;1379;-87
2023/04/09 00:52:13;;;;;;;37.08;24.25;;;;;;;6.47;63.89;101986.34;683103;29;982;-87
2023/04/09 00:52:34;;;;;;;36.30;24.50;;;;;;;6.53;63.86;102001.41;683096;29;1079;-87
2023/04/09 00:52:55;;;;;;;38.30;25.00;;;;;;;6.49;64.02;101995.13;685399;28;1137;-87
2023/04/09 00:53:16;;;;;;;38.50;24.90;;;;;;;6.61;63.85;102010.59;683063;29;991;-87
2023/04/09 00:53:37;;;;;;;38.75;25.25;;;;;;;6.39;64.21;101990.16;685734;28;1277;-86
2023/04/09 00:53:57;;;;;;;39.08;24.73;;;;;;;6.38;64.19;101993.53;685547;28;1254;-87
2023/04/09 00:54:18;;;;;;;40.87;25.17;;;;;;;6.47;64.21;102001.00;680369;29;1270;-87
2023/04/09 00:54:39;;;;;;;40.55;25.05;;;;;;;6.39;64.05;101997.94;677801;29;1196;-87
2023/04/09 00:55:02;;;;;;;40.30;25.10;;;;;;;6.48;64.14;102019.28;682536;29;1200;-87
2023/04/09 00:55:24;;;;;;;40.75;24.27;;;;;;;6.45;64.20;102013.91;685551;28;1331;-86
2023/04/09 00:55:45;;;;;;;41.75;24.70;;;;;;;6.42;64.10;102009.41;685534;28;1911;-87
2023/04/09 00:56:06;;;;;;;43.50;25.15;;;;;;;6.39;64.12;102004.00;680200;29;1412;-87
2023/04/09 00:56:28;;;;;;;38.65;24.77;;;;;;;6.31;64.17;101994.81;680474;29;872;-87
2023/04/09 00:56:50;;;;;;;38.25;24.60;;;;;;;6.33;64.47;101988.06;682607;29;1406;-87
2023/04/09 00:57:11;;;;;;;37.88;24.40;;;;;;;6.36;64.42;102002.91;685603;28;1332;-87
2023/04/09 00:57:32;;;;;;;39.20;24.65;;;;;;;6.42;64.22;102009.41;680351;29;1303;-87
2023/04/09 00:57:52;;;;;;;38.73;24.43;;;;;;;6.44;64.07;102019.84;682895;29;1095;-87
2023/04/09 00:58:13;;;;;;;37.80;24.08;;;;;;;6.39;64.40;102004.00;685702;28;1180;-87
2023/04/09 00:58:34;;;;;;;38.50;23.80;;;;;;;6.43;64.38;102016.38;683095;29;888;-87
2023/04/09 00:58:55;;;;;;;37.50;24.08;;;;;;;6.34;64.52;102002.81;682892;29;1100;-87
2023/04/09 00:59:16;;;;;;;37.53;23.92;;;;;;;6.35;64.35;102003.69;685550;28;1259;-87
2023/04/09 00:59:37;;;;;;;36.53;24.48;;;;;;;6.36;64.21;102000.31;683079;29;716;-87
2023/04/09 00:59:58;;;;;;;39.10;24.80;;;;;;;6.41;64.14;102012.78;680186;29;1108;-87
2023/04/09 01:00:18;;;;;;;36.55;24.52;;;;;;;6.40;64.43;102020.47;685588;28;1169;-87
2023/04/09 01:00:39;;;;;;;38.90;24.88;;;;;;;6.37;64.17;102009.88;685647;28;1279;-87
2023/04/09 01:01:00;;;;;;;38.35;25.27;;;;;;;6.38;64.11;102016.88;682928;29;1117;-87
2023/04/09 01:01:21;;;;;;;40.08;25.80;;;;;;;6.33;64.08;102008.81;682844;29;1198;-87
2023/04/09 01:01:41;;;;;;;40.73;26.93;;;;;;;6.26;64.00;101996.25;680412;29;811;-87
2023/04/09 01:02:02;;;;;;;42.00;26.35;;;;;;;6.32;64.33;102006.09;682756;28;1357;-87
2023/04/09 01:02:22;;;;;;;41.73;26.00;;;;;;;6.25;64.38;102000.50;685686;28;1169;-87
2023/04/09 01:02:43;;;;;;;39.83;24.83;;;;;;;6.27;64.41;102005.81;688342;28;985;-86
2023/04/09 01:03:05;;;;;;;40.15;25.52;;;;;;;6.35;64.09;102014.06;682838;29;1186;-87
2023/04/09 01:03:26;;;;;;;41.80;25.75;;;;;;;6.34;64.30;102000.22;682988;29;1254;-87
2023/04/09 01:03:46;;;;;;;42.78;26.30;;;;;;;6.35;64.57;102011.47;685475;28;1244;-87
2023/04/09 01:04:07;;;;;;;39.33;25.27;;;;;;;6.37;64.20;102020.25;688163;28;1349;-87
2023/04/09 01:04:29;;;;;;;38.03;25.15;;;;;;;6.29;64.48;102006.81;683034;29;1190;-86
2023/04/09 01:04:50;;;;;;;37.75;24.73;;;;;;;6.28;64.12;102008.47;680230;29;1222;-87
2023/04/09 01:05:11;;;;;;;39.10;24.98;;;;;;;6.23;63.98;101994.34;677640;29;1095;-87
2023/04/09 01:05:44;;;;;;;39.90;25.38;;;;;;;6.33;64.47;102010.50;682884;29;1344;-86
2023/04/09 01:06:14;;;;;;;40.78;25.40;;;;;;;6.30;64.28;102012.09;680320;29;1196;-86
2023/04/09 01:06:59;;;;;;;41.05;25.77;;;;;;;6.33;64.13;102019.19;680491;29;733;-87
2023/04/09 01:07:46;;;;;;;42.85;25.08;;;;;;;6.30;64.40;102019.88;682112;28;1077;-87
2023/04/09 01:08:44;;;;;;;41.65;25.70;;;;;;;6.29;63.99;102011.97;685601;28;997;-87
2023/04/09 01:09:23;;;;;;;38.45;25.10;;;;;;;6.22;64.56;101996.81;685618;28;1097;-86
2023/04/09 01:09:58;;;;;;;39.53;25.48;;;;;;;6.19;64.57;101994.91;683053;29;1097;-87
2023/04/09 01:10:43;;;;;;;39.53;25.23;;;;;;;6.23;64.20;102009.88;683025;29;1193;-87
2023/04/09 01:11:34;;;;;;;43.05;25.33;;;;;;;6.25;64.60;102013.47;685053;28;1104;-87
2023/04/09 01:12:26;;;;;;;42.03;25.35;;;;;;;6.24;64.70;102009.09;685403;28;1128;-87
2023/04/09 01:13:10;;;;;;;40.40;25.60;;;;;;;6.22;64.66;102008.09;680100;29;1103;-87
2023/04/09 01:13:45;;;;;;;41.05;25.70;;;;;;;6.18;64.49;102007.81;680267;29;1281;-87
2023/04/09 01:14:17;;;;;;;40.13;26.33;;;;;;;6.13;64.73;101989.31;682951;28;1007;-87
2023/04/09 01:14:46;;;;;;;41.65;26.33;;;;;;;6.20;64.65;102012.25;683048;28;867;-87
2023/04/09 01:15:14;;;;;;;43.16;26.38;;;;;;;6.10;64.62;101994.31;680181;29;1325;-87
2023/04/09 01:15:42;;;;;;;43.05;26.70;;;;;;;6.16;64.54;102005.97;685634;28;1907;-87
2023/04/09 01:16:05;;;;;;;42.13;26.55;;;;;;;6.15;64.20;102005.91;685405;28;1195;-87
2023/04/09 01:16:30;;;;;;;42.00;26.30;;;;;;;6.10;64.30;102000.41;682945;29;1146;-87
2023/04/09 01:17:01;;;;;;;40.05;26.60;;;;;;;6.14;64.54;102011.88;680025;29;987;-86
2023/04/09 01:17:34;;;;;;;40.35;26.45;;;;;;;6.07;64.51;101996.72;677755;29;797;-87
2023/04/09 01:18:10;;;;;;;41.17;26.23;;;;;;;6.14;64.70;102006.69;682725;29;978;-87
2023/04/09 01:18:43;;;;;;;38.50;25.70;;;;;;;6.14;64.79;102012.75;682921;29;1186;-87
2023/04/09 01:19:25;;;;;;;40.40;25.73;;;;;;;6.09;64.58;101997.72;682853;29;1192;-87
2023/04/09 01:19:45;;;;;;;43.15;26.63;;;;;;;6.14;64.72;102011.88;682707;29;1284;-87
2023/04/09 01:20:29;;;;;;;40.75;25.98;;;;;;;6.03;64.54;101998.22;685507;28;969;-87
2023/04/09 01:21:10;;;;;;;40.63;26.95;;;;;;;6.07;64.44;102004.50;685111;28;1233;-87
2023/04/09 01:21:33;;;;;;;41.08;26.70;;;;;;;6.03;64.66;101993.91;685722;28;816;-87
2023/04/09 01:22:40;;;;;;;42.20;26.42;;;;;;;6.09;64.54;102005.47;685494;28;1116;-87
2023/04/09 01:23:09;;;;;;;44.42;27.08;;;;;;;6.13;64.51;102012.66;682493;29;1403;-87
2023/04/09 01:23:57;;;;;;;47.05;27.63;;;;;;;6.14;64.56;102017.94;680190;29;1208;-87
2023/04/09 01:24:35;;;;;;;44.45;27.05;;;;;;;6.07;64.84;101999.31;677421;29;1127;-87
2023/04/09 01:25:29;;;;;;;45.95;27.85;;;;;;;6.13;64.86;102004.88;677367;29;1350;-86
2023/04/09 01:26:10;;;;;;;43.85;26.92;;;;;;;6.10;64.84;102003.00;667014;29;1139;-87
2023/04/09 01:26:50;;;;;;;45.70;28.52;;;;;;;6.19;64.56;102013.06;674877;29;1024;-87
2023/04/09 01:27:12;;;;;;;45.55;28.90;;;;;;;6.09;64.65;102000.31;680037;29;1126;-87
2023/04/09 01:28:18;;;;;;;50.05;29.70;;;;;;;6.16;64.91;102005.09;682334;28;1164;-87
2023/04/09 01:28:44;;;;;;;44.53;28.10;;;;;;;6.21;64.95;102019.28;672625;29;1497;-86
2023/04/09 01:29:06;;;;;;;46.63;28.73;;;;;;;6.14;64.93;102004.97;680081;29;1340;-86
2023/04/09 01:29:30;;;;;;;49.20;29.67;;;;;;;6.14;64.66;101997.22;682864;29;1267;-86
2023/04/09 01:29:53;;;;;;;49.80;28.75;;;;;;;6.14;64.76;101997.22;682808;29;1249;-86
2023/04/09 01:30:16;;;;;;;47.60;28.40;;;;;;;6.21;65.13;102002.81;680216;29;1125;-86
2023/04/09 01:30:40;;;;;;;47.90;28.73;;;;;;;6.23;64.56;102017.66;685768;28;1180;-86
2023/04/09 01:31:13;;;;;;;46.17;28.70;;;;;;;6.14;64.77;102004.09;688028;28;1524;-86
2023/04/09 01:31:37;;;;;;;46.95;28.42;;;;;;;6.23;65.00;102012.47;691080;28;815;-86
2023/04/09 01:31:59;;;;;;;48.15;29.00;;;;;;;6.20;64.68;102009.66;688037;28;1397;-86
2023/04/09 01:32:21;;;;;;;46.15;28.70;;;;;;;6.13;64.65;101994.50;682948;29;1257;-86
2023/04/09 01:32:42;;;;;;;46.17;29.38;;;;;;;6.11;64.49;101994.44;680272;29;1078;-86
2023/04/09 01:33:04;;;;;;;45.58;29.13;;;;;;;6.10;64.78;101994.31;682658;28;1375;-86
2023/04/09 01:33:28;;;;;;;47.72;29.40;;;;;;;6.17;64.76;102001.69;683158;28;1232;-86
2023/04/09 01:33:51;;;;;;;47.60;28.98;;;;;;;6.18;64.87;102008.69;685484;28;1236;-86
2023/04/09 01:34:14;;;;;;;46.10;29.20;;;;;;;6.13;64.79;101995.41;682929;29;965;-86
2023/04/09 01:34:35;;;;;;;44.67;29.10;;;;;;;6.07;64.60;101983.75;688228;28;1332;-86
2023/04/09 01:34:56;;;;;;;44.97;29.27;;;;;;;6.10;64.79;101994.31;687989;28;1356;-86
2023/04/09 01:35:18;;;;;;;46.35;29.65;;;;;;;6.16;64.56;102002.50;680294;29;1407;-86
2023/04/09 01:35:47;;;;;;;48.65;29.50;;;;;;;6.08;64.94;101994.22;677639;29;1972;-87
2023/04/09 01:36:09;;;;;;;47.08;28.92;;;;;;;6.19;64.70;102007.00;682813;29;1106;-86
2023/04/09 01:36:31;;;;;;;45.70;28.67;;;;;;;6.19;65.15;102010.47;680187;29;1259;-87
2023/04/09 01:36:56;;;;;;;43.78;28.17;;;;;;;6.09;64.68;101996.03;680016;29;1265;-86
2023/04/09 01:37:18;;;;;;;44.80;28.73;;;;;;;6.14;64.85;101999.81;682953;29;1061;-86
2023/04/09 01:37:40;;;;;;;44.80;28.30;;;;;;;6.06;64.81;101988.03;682951;29;1150;-86
2023/04/09 01:38:03;;;;;;;46.47;28.35;;;;;;;6.16;65.09;102008.56;682952;29;1070;-86
2023/04/09 01:38:25;;;;;;;46.85;27.27;;;;;;;6.05;64.62;101980.16;683193;29;809;-86
2023/04/09 01:38:50;;;;;;;46.80;27.58;;;;;;;6.08;64.69;101994.22;682950;29;1207;-86
2023/04/09 01:39:13;;;;;;;46.55;28.20;;;;;;;6.11;64.66;101993.50;685607;28;1264;-86
2023/04/09 01:39:36;;;;;;;45.65;28.63;;;;;;;6.15;65.04;102006.78;680381;29;1238;-86
2023/04/09 01:39:58;;;;;;;47.15;29.35;;;;;;;6.09;65.20;101998.63;682910;29;1134;-86
2023/04/09 01:40:18;;;;;;;47.83;28.80;;;;;;;6.17;64.70;102006.88;683147;29;1167;-86
2023/04/09 01:40:39;;;;;;;48.05;28.70;;;;;;;6.10;64.87;101996.91;683183;29;895;-86
2023/04/09 01:41:02;;;;;;;48.08;28.63;;;;;;;6.09;65.12;101990.84;683035;29;1265;-86
2023/04/09 01:41:25;;;;;;;46.75;28.48;;;;;;;6.17;65.12;102009.47;683140;28;1296;-86
2023/04/09 01:41:47;;;;;;;45.20;29.00;;;;;;;6.10;64.47;101996.91;685630;28;1235;-86
2023/04/09 01:42:11;;;;;;;43.55;28.55;;;;;;;6.14;64.89;101999.81;685691;28;1263;-86
2023/04/09 01:42:32;;;;;;;40.65;27.52;;;;;;;6.14;64.89;102012.75;688544;28;804;-86
2023/04/09 01:42:54;;;;;;;40.82;27.02;;;;;;;6.09;64.61;101995.13;685634;28;978;-86
2023/04/09 01:43:15;;;;;;;43.42;27.38;;;;;;;6.09;64.61;101998.63;680367;29;971;-86
2023/04/09 01:43:40;;;;;;;45.90;28.35;;;;;;;6.11;64.69;101998.69;680426;29;1335;-86
2023/04/09 01:44:03;;;;;;;44.50;28.38;;;;;;;6.09;64.79;101993.44;685497;28;999;-86
2023/04/09 01:44:25;;;;;;;43.63;28.38;;;;;;;6.13;64.82;102002.28;685699;28;921;-86
2023/04/09 01:44:45;;;;;;;44.08;28.00;;;;;;;6.13;64.86;102007.47;685667;28;1145;-86
2023/04/09 01:45:08;;;;;;;44.08;28.00;;;;;;;6.12;64.93;102004.00;685502;28;1158;-86
2023/04/09 01:45:29;;;;;;;41.63;27.05;;;;;;;6.05;65.29;101994.00;680439;28;1265;-86
2023/04/09 01:45:50;;;;;;;43.75;27.90;;;;;;;6.13;65.04;102003.19;682854;29;1172;-86
2023/04/09 01:46:12;;;;;;;43.65;27.92;;;;;;;6.14;64.71;102004.09;682986;29;1007;-86
2023/04/09 01:46:34;;;;;;;42.63;28.30;;;;;;;6.06;65.24;101993.22;677613;29;1660;-86
2023/04/09 01:46:56;;;;;;;42.10;28.17;;;;;;;6.13;64.75;102010.06;685234;28;1390;-86
2023/04/09 01:47:18;;;;;;;42.55;28.65;;;;;;;6.11;65.28;102001.28;685595;28;1451;-86
2023/04/09 01:47:40;;;;;;;44.15;28.35;;;;;;;6.12;65.00;101991.03;683043;29;1304;-86
2023/04/09 01:48:02;;;;;;;42.88;25.85;;;;;;;6.37;64.19;101996.91;682783;29;1184;-86
2023/04/09 01:48:23;;;;;;;42.20;23.08;;;;;;;6.46;63.92;101994.03;688029;28;1352;-86
2023/04/09 01:48:45;;;;;;;40.08;21.27;;;;;;;6.59;63.90;101996.63;687897;28;1264;-86
2023/04/09 01:49:06;;;;;;;39.17;20.33;;;;;;;6.64;63.48;102007.28;680134;28;1335;-86
2023/04/09 01:49:27;;;;;;;40.05;20.85;;;;;;;6.63;63.35;102000.31;680269;29;1239;-86
2023/04/09 01:49:49;;;;;;;38.95;20.48;;;;;;;6.70;62.71;101999.91;685421;28;1261;-86
2023/04/09 01:50:09;;;;;;;38.33;20.83;;;;;;;6.64;63.04;101991.72;688120;28;1287;-86
2023/04/09 01:50:31;;;;;;;37.38;20.45;;;;;;;6.76;62.84;102008.09;680302;29;1251;-86
2023/04/09 01:50:52;;;;;;;38.15;20.85;;;;;;;6.73;62.73;102007.03;682634;28;1259;-86
2023/04/09 01:51:14;;;;;;;39.13;21.02;;;;;;;6.75;62.71;102008.91;680378;29;1105;-86